Time;durP1;ratioP1;P1;durP2;ratioP2;P2;SDS_P1;SDS_P2;PMS_P1;PMS_P2;Temp;Humidity;BMP_temperature;BMP_pressure;BME280_temperature;BME280_humidity;BME280_pressure;Samples;Min_cycle;Max_cycle;Signal;HPM_P1;HPM_P2
2021/11/29 00:02:18;;;;;;;18.93;12.97;;;2.90;99.90;;;;;;5115487;28;20666;-77
2021/11/29 00:04:45;;;;;;;18.60;13.90;;;2.80;99.90;;;;;;5129090;27;20307;-78
2021/11/29 00:07:12;;;;;;;21.20;14.53;;;3.00;99.90;;;;;;5133045;27;20275;-77
2021/11/29 00:09:39;;;;;;;22.37;15.47;;;2.80;99.90;;;;;;5122057;27;20299;-78
2021/11/29 00:12:07;;;;;;;20.53;16.63;;;2.70;99.90;;;;;;5116167;28;20282;-77
2021/11/29 00:14:36;;;;;;;24.43;18.33;;;2.80;99.90;;;;;;5115253;28;20218;-78
2021/11/29 00:17:03;;;;;;;25.13;18.17;;;2.90;99.90;;;;;;5115793;27;20289;-78
2021/11/29 00:19:30;;;;;;;26.53;18.20;;;2.90;99.90;;;;;;5115526;28;20313;-77
2021/11/29 00:21:57;;;;;;;24.33;18.17;;;2.70;99.90;;;;;;5116109;28;20244;-78
2021/11/29 00:24:24;;;;;;;24.60;18.90;;;2.80;99.90;;;;;;5115199;27;20760;-77
2021/11/29 00:26:51;;;;;;;23.27;17.63;;;2.70;99.90;;;;;;5115287;28;20282;-77
2021/11/29 00:29:18;;;;;;;23.90;18.17;;;2.70;99.90;;;;;;5114710;27;20292;-77
2021/11/29 00:31:46;;;;;;;23.03;18.13;;;2.80;99.90;;;;;;5115130;28;20232;-78
2021/11/29 00:34:13;;;;;;;22.07;17.30;;;2.90;99.90;;;;;;5115095;28;20637;-77
2021/11/29 00:36:40;;;;;;;21.17;17.47;;;2.80;99.90;;;;;;5115372;28;20210;-77
2021/11/29 00:39:07;;;;;;;24.53;17.97;;;3.00;99.90;;;;;;5115304;28;20235;-76
2021/11/29 00:41:34;;;;;;;23.33;18.30;;;3.00;99.90;;;;;;5114435;28;20240;-78
2021/11/29 00:44:00;;;;;;;25.07;18.47;;;2.80;99.90;;;;;;5123396;27;20776;-78
2021/11/29 00:46:28;;;;;;;25.23;19.13;;;2.80;99.90;;;;;;5135451;27;20261;-77
2021/11/29 00:48:56;;;;;;;22.87;17.60;;;2.80;99.90;;;;;;5117186;27;20207;-77
2021/11/29 00:51:23;;;;;;;24.30;18.70;;;2.80;99.90;;;;;;5114926;28;20232;-78
2021/11/29 00:53:50;;;;;;;23.23;17.07;;;2.90;99.90;;;;;;5114907;28;20232;-77
2021/11/29 00:56:18;;;;;;;22.80;15.73;;;3.00;99.90;;;;;;5115215;28;20283;-77
2021/11/29 00:58:45;;;;;;;17.97;14.33;;;2.70;99.90;;;;;;5114350;28;20222;-77
2021/11/29 01:01:12;;;;;;;18.73;14.73;;;3.00;99.90;;;;;;5114363;28;20283;-77
2021/11/29 01:03:39;;;;;;;18.17;14.07;;;2.80;99.90;;;;;;5116713;27;20280;-78
2021/11/29 01:06:07;;;;;;;20.37;14.57;;;2.90;99.90;;;;;;5117685;27;20220;-78
2021/11/29 01:08:35;;;;;;;16.73;14.23;;;3.00;99.90;;;;;;5114569;28;20283;-77
2021/11/29 01:11:03;;;;;;;19.43;13.30;;;3.00;99.90;;;;;;5114186;28;20200;-78
2021/11/29 01:13:30;;;;;;;16.50;12.63;;;2.90;99.90;;;;;;5114196;27;20299;-78
2021/11/29 01:15:57;;;;;;;16.37;12.70;;;3.00;99.90;;;;;;5114800;28;20610;-77
2021/11/29 01:18:24;;;;;;;18.33;12.30;;;2.90;99.90;;;;;;5114873;27;20244;-77
2021/11/29 01:20:51;;;;;;;16.80;11.63;;;3.00;99.90;;;;;;5114140;28;20315;-77
2021/11/29 01:23:21;;;;;;;17.40;11.70;;;3.00;99.90;;;;;;5114546;28;20291;-78
2021/11/29 01:25:50;;;;;;;16.17;12.03;;;3.00;99.90;;;;;;5113722;28;20319;-78
2021/11/29 01:28:17;;;;;;;17.63;11.83;;;3.00;99.90;;;;;;5114405;28;20204;-77
2021/11/29 01:30:44;;;;;;;19.17;12.30;;;3.10;99.90;;;;;;5114543;28;20201;-77
2021/11/29 01:33:11;;;;;;;16.77;11.97;;;3.30;99.90;;;;;;5114660;28;20229;-76
2021/11/29 01:35:38;;;;;;;16.20;11.63;;;3.10;99.90;;;;;;5133683;27;20275;-77
2021/11/29 01:38:06;;;;;;;17.60;11.63;;;3.40;99.90;;;;;;5134868;27;20291;-77
2021/11/29 01:40:34;;;;;;;17.30;12.00;;;3.30;99.90;;;;;;5118696;27;20239;-76
2021/11/29 01:43:03;;;;;;;16.17;10.50;;;3.10;99.90;;;;;;5114532;27;20287;-77
2021/11/29 01:45:32;;;;;;;16.73;11.23;;;3.10;99.90;;;;;;5114000;27;20257;-77
2021/11/29 01:47:59;;;;;;;19.07;11.77;;;3.20;99.90;;;;;;5093469;28;20237;-78
2021/11/29 01:50:26;;;;;;;16.47;10.83;;;3.10;99.90;;;;;;5118063;27;20282;-77
2021/11/29 01:52:53;;;;;;;16.63;11.50;;;3.10;99.90;;;;;;5115752;27;20210;-78
2021/11/29 01:55:22;;;;;;;14.80;11.00;;;2.90;99.90;;;;;;5113635;28;20251;-77
2021/11/29 01:57:50;;;;;;;16.33;11.33;;;3.00;99.90;;;;;;5113004;28;20239;-77
2021/11/29 02:00:20;;;;;;;16.93;11.63;;;3.10;99.90;;;;;;5113657;27;20197;-77
2021/11/29 02:02:49;;;;;;;14.13;11.33;;;3.10;99.90;;;;;;5113712;28;20289;-77
2021/11/29 02:05:16;;;;;;;16.63;12.30;;;3.10;99.90;;;;;;5114081;28;20251;-77
2021/11/29 02:07:43;;;;;;;15.63;11.93;;;3.20;99.90;;;;;;5113549;28;20232;-78
2021/11/29 02:10:10;;;;;;;16.47;12.97;;;3.20;99.90;;;;;;5113058;28;20287;-77
2021/11/29 02:12:38;;;;;;;18.63;13.47;;;3.10;99.90;;;;;;5113731;28;20208;-77
2021/11/29 02:15:08;;;;;;;15.30;11.93;;;3.20;99.90;;;;;;5112883;28;20311;-78
2021/11/29 02:17:35;;;;;;;17.70;13.13;;;3.10;99.90;;;;;;5112670;28;20237;-77
2021/11/29 02:20:02;;;;;;;15.63;12.70;;;3.10;99.90;;;;;;5112780;27;20319;-77
2021/11/29 02:22:31;;;;;;;17.37;13.57;;;3.10;99.90;;;;;;5121239;27;20231;-77
2021/11/29 02:24:58;;;;;;;18.20;13.40;;;3.20;99.90;;;;;;5130694;27;20292;-77
2021/11/29 02:27:25;;;;;;;19.53;14.27;;;3.20;99.90;;;;;;5113473;27;20606;-77
2021/11/29 02:29:52;;;;;;;20.13;14.40;;;3.20;99.90;;;;;;5113275;28;20200;-77
2021/11/29 02:32:19;;;;;;;18.60;14.30;;;3.20;99.90;;;;;;5112828;28;20236;-77
2021/11/29 02:34:46;;;;;;;20.73;15.60;;;3.40;99.90;;;;;;5127768;27;20307;-78
2021/11/29 02:37:13;;;;;;;20.67;14.60;;;3.30;99.90;;;;;;5121969;27;20772;-78
2021/11/29 02:39:42;;;;;;;23.90;15.60;;;3.20;99.90;;;;;;5112854;28;20392;-77
2021/11/29 02:42:12;;;;;;;21.73;15.27;;;3.20;99.90;;;;;;5123223;27;20288;-78
2021/11/29 02:44:42;;;;;;;22.47;15.23;;;3.10;99.90;;;;;;5130885;27;20282;-78
2021/11/29 02:47:09;;;;;;;25.30;16.23;;;3.10;99.90;;;;;;5126218;27;20217;-78
2021/11/29 02:49:36;;;;;;;19.00;15.10;;;3.10;99.90;;;;;;5133516;27;20232;-78
2021/11/29 02:52:07;;;;;;;18.17;14.80;;;3.20;99.90;;;;;;5132935;27;20315;-78
2021/11/29 02:54:37;;;;;;;18.83;14.77;;;3.00;99.90;;;;;;5112690;28;20629;-78
2021/11/29 02:57:08;;;;;;;22.63;15.20;;;3.00;99.90;;;;;;5113024;28;20287;-78
2021/11/29 02:59:38;;;;;;;20.07;14.73;;;3.10;99.90;;;;;;5112701;28;20240;-77
2021/11/29 03:02:07;;;;;;;22.57;15.20;;;3.00;99.90;;;;;;5111908;28;20647;-78
2021/11/29 03:04:36;;;;;;;21.17;15.67;;;3.10;99.90;;;;;;5112787;28;20200;-77
2021/11/29 03:07:05;;;;;;;21.83;14.83;;;3.20;99.90;;;;;;5112044;28;20314;-78
2021/11/29 03:09:33;;;;;;;20.43;15.53;;;3.20;99.90;;;;;;5112436;28;20286;-78
2021/11/29 03:12:00;;;;;;;19.87;15.13;;;3.40;99.90;;;;;;5112615;28;20274;-77
2021/11/29 03:14:29;;;;;;;19.27;14.80;;;3.40;99.90;;;;;;5111287;28;20307;-77
2021/11/29 03:16:57;;;;;;;20.43;15.10;;;3.20;99.90;;;;;;5112728;28;20203;-77
2021/11/29 03:19:28;;;;;;;19.60;15.80;;;3.30;99.90;;;;;;5112194;28;20811;-77
2021/11/29 03:21:56;;;;;;;20.80;15.33;;;3.40;99.90;;;;;;5102882;28;20289;-78
2021/11/29 03:24:23;;;;;;;23.50;16.13;;;3.30;99.90;;;;;;5123850;28;20279;-78
2021/11/29 03:26:50;;;;;;;19.17;15.13;;;3.30;99.90;;;;;;5100113;28;20315;-78
2021/11/29 03:29:18;;;;;;;19.83;14.07;;;3.20;99.90;;;;;;5115165;28;20620;-77
2021/11/29 03:31:51;;;;;;;20.97;15.13;;;3.40;99.90;;;;;;5116841;28;20296;-78
2021/11/29 03:34:18;;;;;;;19.70;14.80;;;3.30;99.90;;;;;;5116519;28;20537;-77
2021/11/29 03:36:47;;;;;;;21.40;16.07;;;3.30;99.90;;;;;;5116270;28;20235;-77
2021/11/29 03:39:17;;;;;;;17.60;14.43;;;3.40;99.90;;;;;;5116915;28;20239;-77
2021/11/29 03:41:46;;;;;;;20.43;15.63;;;3.30;99.90;;;;;;5116249;28;20198;-78
2021/11/29 03:44:14;;;;;;;19.63;15.10;;;3.10;99.90;;;;;;5115811;28;20197;-77
2021/11/29 03:46:44;;;;;;;18.17;14.60;;;3.10;99.90;;;;;;5116145;27;20228;-77
2021/11/29 03:49:12;;;;;;;20.30;14.73;;;3.10;99.90;;;;;;5096237;28;20312;-78
2021/11/29 03:51:40;;;;;;;18.60;14.83;;;3.10;99.90;;;;;;5096549;28;20290;-78
2021/11/29 03:54:07;;;;;;;19.73;14.70;;;3.20;99.90;;;;;;5116062;28;20201;-78
2021/11/29 03:56:35;;;;;;;18.97;15.03;;;3.10;99.90;;;;;;5115826;27;20727;-77
2021/11/29 03:59:02;;;;;;;21.13;14.57;;;3.20;99.90;;;;;;5115690;28;20240;-77
2021/11/29 04:01:29;;;;;;;19.27;14.40;;;3.10;99.90;;;;;;5116620;27;20264;-76
2021/11/29 04:03:56;;;;;;;18.83;13.47;;;3.10;99.90;;;;;;5127958;27;20220;-77
2021/11/29 04:06:25;;;;;;;19.70;13.13;;;3.10;99.90;;;;;;5115752;28;20402;-77
2021/11/29 04:08:52;;;;;;;19.00;13.77;;;3.10;99.90;;;;;;5134063;27;20228;-78
2021/11/29 04:11:19;;;;;;;18.90;13.80;;;3.00;99.90;;;;;;5120091;27;20269;-78
2021/11/29 04:13:46;;;;;;;21.97;15.10;;;3.00;99.90;;;;;;5125348;27;20208;-78
2021/11/29 04:16:15;;;;;;;18.17;13.93;;;3.10;99.90;;;;;;5115745;28;20280;-78
2021/11/29 04:18:42;;;;;;;17.57;13.17;;;3.10;99.90;;;;;;5115088;28;20207;-77
2021/11/29 04:21:10;;;;;;;17.87;13.67;;;3.00;99.90;;;;;;5115290;28;20620;-77
2021/11/29 04:23:38;;;;;;;19.40;13.10;;;3.00;99.90;;;;;;5115645;27;20203;-77
2021/11/29 04:26:05;;;;;;;17.53;12.70;;;3.00;99.90;;;;;;5115531;28;20231;-77
2021/11/29 04:28:33;;;;;;;19.30;12.70;;;3.00;99.90;;;;;;5115743;28;20207;-78
2021/11/29 04:31:00;;;;;;;17.73;11.60;;;3.00;99.90;;;;;;5115160;28;20257;-77
2021/11/29 04:33:27;;;;;;;14.47;11.37;;;3.00;99.90;;;;;;5115376;28;20236;-77
2021/11/29 04:35:54;;;;;;;13.40;9.87;;;2.90;99.90;;;;;;5115152;28;20207;-78
2021/11/29 04:38:21;;;;;;;15.67;10.20;;;2.80;99.90;;;;;;5115503;28;20240;-77
2021/11/29 04:40:50;;;;;;;12.87;9.00;;;2.80;99.90;;;;;;5114547;28;20232;-78
2021/11/29 04:43:17;;;;;;;10.90;7.83;;;2.80;99.90;;;;;;5115303;28;20285;-77
2021/11/29 04:45:44;;;;;;;10.27;7.27;;;2.70;99.90;;;;;;5114851;28;20226;-78
2021/11/29 04:48:11;;;;;;;7.70;6.23;;;2.60;99.90;;;;;;5114758;28;20279;-78
2021/11/29 04:50:38;;;;;;;8.33;6.43;;;2.40;99.90;;;;;;5115038;28;20283;-76
2021/11/29 04:53:06;;;;;;;8.87;6.20;;;2.40;99.90;;;;;;5114706;28;20261;-78
2021/11/29 04:55:33;;;;;;;8.50;6.00;;;2.40;99.90;;;;;;5115122;28;20218;-78
2021/11/29 04:58:01;;;;;;;7.13;5.63;;;2.20;99.90;;;;;;5114540;28;20363;-78
2021/11/29 05:00:28;;;;;;;8.83;6.37;;;2.20;99.90;;;;;;5114963;28;20552;-78
2021/11/29 05:02:55;;;;;;;8.87;6.13;;;2.10;99.90;;;;;;5115259;27;20287;-78
2021/11/29 05:05:22;;;;;;;8.90;6.10;;;1.90;99.90;;;;;;5114558;28;20206;-76
2021/11/29 05:07:49;;;;;;;10.30;6.30;;;1.80;99.90;;;;;;5114677;28;20272;-78
2021/11/29 05:10:16;;;;;;;9.33;5.80;;;1.70;99.90;;;;;;5115118;28;20285;-77
2021/11/29 05:12:43;;;;;;;7.53;5.90;;;1.60;99.90;;;;;;5114721;28;20336;-77
2021/11/29 05:15:12;;;;;;;7.00;5.43;;;1.70;99.90;;;;;;5114581;28;20254;-78
2021/11/29 05:17:39;;;;;;;8.50;5.70;;;1.50;99.90;;;;;;5114637;28;20229;-77
2021/11/29 05:20:07;;;;;;;8.50;6.10;;;1.40;99.90;;;;;;5113967;28;20325;-77
2021/11/29 05:22:34;;;;;;;9.90;6.20;;;1.30;99.90;;;;;;5114734;28;20199;-77
2021/11/29 05:25:01;;;;;;;9.53;6.50;;;1.20;99.90;;;;;;5114669;28;20208;-77
2021/11/29 05:27:28;;;;;;;9.47;5.67;;;1.20;99.90;;;;;;5114222;28;20302;-78
2021/11/29 05:29:55;;;;;;;9.53;5.77;;;1.10;99.90;;;;;;5114275;28;20236;-77
2021/11/29 05:32:23;;;;;;;8.40;5.33;;;1.00;99.90;;;;;;5113482;28;20309;-77
2021/11/29 05:34:50;;;;;;;7.63;5.67;;;0.90;99.90;;;;;;5115066;27;20194;-77
2021/11/29 05:37:17;;;;;;;7.93;5.33;;;1.00;99.90;;;;;;5114424;28;20229;-77
2021/11/29 05:39:44;;;;;;;8.37;5.20;;;0.90;99.90;;;;;;5114010;28;20757;-77
2021/11/29 05:42:11;;;;;;;8.87;4.97;;;0.90;99.90;;;;;;5113842;28;20229;-78
2021/11/29 05:44:38;;;;;;;6.77;5.10;;;0.80;99.90;;;;;;5113902;28;20619;-77
2021/11/29 05:47:05;;;;;;;7.00;4.70;;;0.70;99.90;;;;;;5113370;28;20356;-77
2021/11/29 05:49:34;;;;;;;6.60;5.17;;;0.70;99.90;;;;;;5114148;28;20197;-77
2021/11/29 05:52:01;;;;;;;6.67;4.90;;;0.70;99.90;;;;;;5113758;28;20285;-78
2021/11/29 05:54:28;;;;;;;8.17;4.77;;;0.60;99.90;;;;;;5113735;28;20201;-78
2021/11/29 05:56:54;;;;;;;6.53;4.73;;;0.40;99.90;;;;;;5113407;28;20695;-77
2021/11/29 05:59:22;;;;;;;7.77;4.60;;;0.30;99.90;;;;;;5113784;28;20236;-78
2021/11/29 06:01:49;;;;;;;5.80;4.50;;;0.30;99.90;;;;;;5113135;28;20194;-78
2021/11/29 06:04:16;;;;;;;6.27;4.47;;;0.20;99.90;;;;;;5114035;28;20646;-78
2021/11/29 06:06:44;;;;;;;6.47;4.70;;;0.10;99.90;;;;;;5113927;28;20268;-77
2021/11/29 06:09:12;;;;;;;7.23;5.07;;;0.00;99.90;;;;;;5113579;28;20235;-77
2021/11/29 06:11:39;;;;;;;7.43;4.60;;;0.00;99.90;;;;;;5113532;28;20748;-77
2021/11/29 06:14:06;;;;;;;7.43;5.13;;;0.10;99.90;;;;;;5113502;28;20312;-77
2021/11/29 06:16:33;;;;;;;11.37;5.00;;;0.00;99.90;;;;;;5117050;27;20220;-77
2021/11/29 06:19:00;;;;;;;7.03;4.90;;;0.00;99.90;;;;;;5113217;28;20225;-76
2021/11/29 06:21:27;;;;;;;7.13;4.87;;;0.10;99.90;;;;;;5112632;28;20233;-77
2021/11/29 06:23:56;;;;;;;6.07;4.97;;;0.00;99.90;;;;;;5112697;28;20201;-76
2021/11/29 06:26:23;;;;;;;8.87;5.07;;;0.00;99.90;;;;;;5112673;28;20604;-76
2021/11/29 06:28:50;;;;;;;7.00;4.63;;;-0.10;99.90;;;;;;5112283;28;20201;-77
2021/11/29 06:31:17;;;;;;;8.60;5.03;;;-0.10;99.90;;;;;;5111761;28;20237;-77
2021/11/29 06:33:44;;;;;;;7.10;4.70;;;-0.20;99.90;;;;;;5112375;28;20291;-77
2021/11/29 06:36:11;;;;;;;6.80;4.40;;;-0.10;99.90;;;;;;5106369;27;20679;-77
2021/11/29 06:38:38;;;;;;;5.30;4.60;;;-0.10;99.90;;;;;;5103177;27;20193;-77
2021/11/29 06:41:08;;;;;;;5.57;4.67;;;-0.20;99.90;;;;;;5105974;28;20689;-77
2021/11/29 06:43:35;;;;;;;8.13;4.67;;;-0.30;99.90;;;;;;5105726;28;20201;-76
2021/11/29 06:46:01;;;;;;;8.77;5.17;;;-0.20;99.90;;;;;;5109391;28;20210;-78
2021/11/29 06:48:28;;;;;;;7.17;5.13;;;-0.10;99.90;;;;;;5111007;27;20278;-77
2021/11/29 06:50:56;;;;;;;8.00;5.10;;;0.00;99.90;;;;;;5105997;28;20237;-77
2021/11/29 06:53:24;;;;;;;8.80;5.17;;;0.00;99.90;;;;;;5112755;28;20205;-77
2021/11/29 06:55:51;;;;;;;9.30;5.83;;;0.00;99.90;;;;;;5112131;28;20654;-78
2021/11/29 06:58:20;;;;;;;10.67;7.73;;;-0.10;99.90;;;;;;5112111;28;20194;-77
2021/11/29 07:00:48;;;;;;;15.37;9.20;;;0.00;99.90;;;;;;5111990;28;20200;-76
2021/11/29 07:03:15;;;;;;;12.87;9.00;;;0.00;99.90;;;;;;5111811;28;20204;-76
2021/11/29 07:05:42;;;;;;;13.87;8.83;;;-0.10;99.90;;;;;;5112665;28;20220;-76
2021/11/29 07:08:09;;;;;;;14.50;9.43;;;-0.10;99.90;;;;;;5111318;28;20239;-76
2021/11/29 07:10:40;;;;;;;14.97;9.53;;;-0.20;99.90;;;;;;5109333;28;20292;-76
2021/11/29 07:13:08;;;;;;;16.53;10.30;;;-0.20;99.90;;;;;;5120195;27;20675;-77
2021/11/29 07:15:37;;;;;;;19.90;11.70;;;-0.30;99.90;;;;;;5111973;28;20224;-76
2021/11/29 07:18:04;;;;;;;20.70;11.33;;;-0.10;99.90;;;;;;5129733;27;20287;-77
2021/11/29 07:20:31;;;;;;;20.77;11.93;;;-0.10;99.90;;;;;;5132930;27;20322;-77
2021/11/29 07:22:59;;;;;;;21.13;12.73;;;-0.10;99.90;;;;;;5095203;28;20285;-76
2021/11/29 07:25:26;;;;;;;23.70;13.57;;;-0.20;99.90;;;;;;5112101;28;20251;-76
2021/11/29 07:27:53;;;;;;;21.47;12.97;;;-0.20;99.90;;;;;;5111858;28;20226;-77
2021/11/29 07:30:22;;;;;;;21.10;13.27;;;-0.20;99.90;;;;;;5111752;28;20236;-77
2021/11/29 07:32:53;;;;;;;20.90;12.87;;;-0.20;99.90;;;;;;5112286;28;20281;-76
2021/11/29 07:35:20;;;;;;;18.63;11.37;;;-0.10;99.90;;;;;;5112069;28;20201;-76
2021/11/29 07:37:49;;;;;;;20.93;11.70;;;-0.10;99.90;;;;;;5112039;28;20221;-77
2021/11/29 07:40:16;;;;;;;16.37;10.53;;;-0.10;99.90;;;;;;5112083;28;20258;-77
2021/11/29 07:42:43;;;;;;;17.17;10.03;;;-0.10;99.90;;;;;;5112453;28;20613;-76
2021/11/29 07:45:11;;;;;;;17.00;10.03;;;-0.10;99.90;;;;;;5112123;28;20244;-76
2021/11/29 07:47:38;;;;;;;16.17;9.47;;;-0.10;99.90;;;;;;5111888;28;20231;-76
2021/11/29 07:50:09;;;;;;;15.03;9.97;;;0.00;99.90;;;;;;5111662;28;20684;-77
2021/11/29 07:52:36;;;;;;;17.73;10.80;;;0.20;99.90;;;;;;5111459;28;20315;-76
2021/11/29 07:55:07;;;;;;;18.93;11.83;;;0.60;99.90;;;;;;5111983;28;20234;-77
2021/11/29 07:57:34;;;;;;;17.27;11.37;;;1.10;99.90;;;;;;5111184;28;20218;-76
2021/11/29 08:00:04;;;;;;;15.20;11.17;;;1.50;99.90;;;;;;5111997;28;20290;-77
2021/11/29 08:02:31;;;;;;;15.67;11.37;;;1.80;99.90;;;;;;5111541;28;20208;-77
2021/11/29 08:04:58;;;;;;;13.97;9.97;;;2.20;99.90;;;;;;5108764;28;20225;-77
2021/11/29 08:07:27;;;;;;;17.50;10.60;;;2.50;99.90;;;;;;5091218;28;20304;-77
2021/11/29 08:09:54;;;;;;;12.43;9.57;;;2.80;99.90;;;;;;5118098;28;20254;-77
2021/11/29 08:12:21;;;;;;;12.03;9.07;;;2.90;99.90;;;;;;5131788;28;20284;-77
2021/11/29 08:14:48;;;;;;;11.77;8.23;;;3.20;99.90;;;;;;5116400;28;20324;-77
2021/11/29 08:17:15;;;;;;;11.50;8.37;;;3.50;99.90;;;;;;5122826;27;20225;-77
2021/11/29 08:19:42;;;;;;;11.87;8.70;;;3.70;99.90;;;;;;5114869;27;20228;-77
2021/11/29 08:22:09;;;;;;;10.83;7.80;;;4.00;99.90;;;;;;5115620;28;20234;-77
2021/11/29 08:24:37;;;;;;;9.53;7.17;;;4.40;99.90;;;;;;5122434;27;20283;-78
2021/11/29 08:27:05;;;;;;;8.93;6.80;;;5.20;99.90;;;;;;5135190;27;20679;-77
2021/11/29 08:29:32;;;;;;;7.63;5.57;;;5.70;99.90;;;;;;5135641;27;20198;-76
2021/11/29 08:31:59;;;;;;;6.33;5.60;;;6.60;99.90;;;;;;5136018;27;20291;-76
2021/11/29 08:34:26;;;;;;;8.03;6.20;;;7.30;99.90;;;;;;5126941;27;20259;-77
2021/11/29 08:36:53;;;;;;;8.03;5.93;;;;;;;;;;5114361;27;20631;-77
2021/11/29 08:39:20;;;;;;;7.23;5.73;;;;;;;;;;5114312;28;20764;-77
2021/11/29 08:41:49;;;;;;;7.57;5.53;;;;;;;;;;5114603;28;20198;-77
2021/11/29 08:44:16;;;;;;;7.60;5.60;;;;;;;;;;5115118;28;20225;-77
2021/11/29 08:46:48;;;;;;;6.57;5.00;;;8.40;99.90;;;;;;5114839;28;20248;-77
2021/11/29 08:49:16;;;;;;;5.53;4.53;;;8.30;99.90;;;;;;5115096;28;20230;-76
2021/11/29 08:51:43;;;;;;;6.13;4.30;;;8.50;99.90;;;;;;5114789;28;20247;-77
2021/11/29 08:54:11;;;;;;;6.23;4.77;;;8.50;99.90;;;;;;5115222;28;20280;-78
2021/11/29 08:56:38;;;;;;;7.23;5.07;;;8.80;99.90;;;;;;5114801;28;20238;-77
2021/11/29 08:59:06;;;;;;;8.40;4.70;;;8.70;99.90;;;;;;5114996;28;20225;-77
2021/11/29 09:01:34;;;;;;;7.17;4.80;;;8.40;99.90;;;;;;5114781;28;20282;-77
2021/11/29 09:04:01;;;;;;;7.03;4.73;;;8.70;99.90;;;;;;5114454;28;20729;-77
2021/11/29 09:06:29;;;;;;;5.33;4.70;;;8.10;99.90;;;;;;5115003;28;20289;-77
2021/11/29 09:08:55;;;;;;;5.20;4.10;;;8.10;99.90;;;;;;5114216;28;20275;-77
2021/11/29 09:11:22;;;;;;;4.77;4.37;;;7.50;99.90;;;;;;5100959;28;20745;-77
2021/11/29 09:13:49;;;;;;;4.93;4.10;;;7.80;99.90;;;;;;5112254;28;20292;-77
2021/11/29 09:16:19;;;;;;;5.73;4.27;;;7.80;99.90;;;;;;5099183;28;20864;-77
2021/11/29 09:18:47;;;;;;;4.20;3.80;;;7.60;99.90;;;;;;5099755;28;20302;-77
2021/11/29 09:21:16;;;;;;;4.50;3.80;;;7.70;99.90;;;;;;5096121;28;20236;-78
2021/11/29 09:23:44;;;;;;;4.57;4.07;;;7.70;99.90;;;;;;5114315;28;20248;-77
2021/11/29 09:26:11;;;;;;;4.10;3.63;;;7.60;99.90;;;;;;5113885;28;20282;-77
2021/11/29 09:28:38;;;;;;;4.17;3.70;;;8.30;99.90;;;;;;5114100;28;20316;-76
2021/11/29 09:31:06;;;;;;;4.17;3.77;;;8.10;99.90;;;;;;5114009;27;20198;-77
2021/11/29 09:33:35;;;;;;;7.80;4.13;;;8.30;99.90;;;;;;5114025;28;20201;-76
2021/11/29 09:36:02;;;;;;;4.87;3.97;;;8.60;99.90;;;;;;5113872;28;20258;-77
2021/11/29 09:38:29;;;;;;;5.33;3.73;;;9.90;99.90;;;;;;5113856;27;20198;-77
2021/11/29 09:40:56;;;;;;;4.30;3.77;;;9.10;99.90;;;;;;5112214;28;20252;-77
2021/11/29 09:43:23;;;;;;;3.90;3.50;;;9.20;99.90;;;;;;5116512;27;20287;-77
2021/11/29 09:45:52;;;;;;;4.73;3.40;;;9.70;99.90;;;;;;5119164;27;20201;-77
2021/11/29 09:48:20;;;;;;;3.37;2.90;;;10.10;99.90;;;;;;5114066;28;20257;-77
2021/11/29 09:50:53;;;;;;;4.37;2.83;;;9.80;99.90;;;;;;5113685;28;20198;-76
2021/11/29 09:53:22;;;;;;;3.07;2.77;;;9.00;99.90;;;;;;5113268;28;20198;-77
2021/11/29 09:55:49;;;;;;;4.63;2.80;;;8.00;99.90;;;;;;5113788;28;20236;-77
2021/11/29 09:58:16;;;;;;;4.47;2.77;;;7.50;99.90;;;;;;5113487;28;20248;-77
2021/11/29 10:00:46;;;;;;;3.67;2.87;;;7.40;99.90;;;;;;5114322;27;20582;-77
2021/11/29 10:03:13;;;;;;;4.17;2.90;;;7.70;99.90;;;;;;5113425;28;20286;-76
2021/11/29 10:05:40;;;;;;;3.90;2.60;;;7.50;99.90;;;;;;5113524;28;20717;-77
2021/11/29 10:08:35;;;;;;;3.47;2.90;;;7.80;99.90;;;;;;5111196;28;20304;-77
2021/11/29 10:11:06;;;;;;;4.53;2.93;;;7.70;99.90;;;;;;5110424;27;20208;-76
2021/11/29 10:13:47;;;;;;;4.37;2.90;;;7.70;99.90;;;;;;5113141;28;20274;-76
2021/11/29 10:16:28;;;;;;;4.43;2.47;;;7.60;99.90;;;;;;5112857;28;20200;-76
2021/11/29 10:18:54;;;;;;;4.27;2.77;;;7.40;99.90;;;;;;5113411;28;20284;-76
2021/11/29 10:21:21;;;;;;;3.80;3.10;;;7.20;99.90;;;;;;5112914;28;20317;-77
2021/11/29 10:23:53;;;;;;;4.43;3.27;;;7.60;99.90;;;;;;5112875;28;20229;-76
2021/11/29 10:26:24;;;;;;;4.50;3.57;;;8.10;99.90;;;;;;5112564;28;20203;-76
2021/11/29 10:28:56;;;;;;;6.43;4.53;;;8.50;99.90;;;;;;5112907;28;20314;-76
2021/11/29 10:31:25;;;;;;;5.00;4.20;;;8.40;99.90;;;;;;5117855;27;20659;-77
2021/11/29 10:34:00;;;;;;;7.23;4.00;;;8.50;99.90;;;;;;5112803;28;20308;-77
2021/11/29 10:36:30;;;;;;;6.47;4.57;;;7.80;99.90;;;;;;5112560;28;20288;-76
2021/11/29 10:39:01;;;;;;;5.77;3.90;;;8.00;99.90;;;;;;5110902;28;20263;-77
2021/11/29 10:41:31;;;;;;;5.60;3.57;;;7.80;99.90;;;;;;5112063;28;20233;-77
2021/11/29 10:43:59;;;;;;;5.33;3.57;;;7.50;99.90;;;;;;5112019;28;20674;-76
2021/11/29 10:46:30;;;;;;;3.63;2.93;;;7.60;99.90;;;;;;5112877;28;20255;-77
2021/11/29 10:48:58;;;;;;;3.40;3.00;;;8.00;99.90;;;;;;5112791;28;20264;-78
2021/11/29 10:51:27;;;;;;;3.90;3.30;;;7.60;99.90;;;;;;5111934;28;20292;-77
2021/11/29 10:53:58;;;;;;;4.23;3.10;;;7.60;99.90;;;;;;5112662;28;20287;-78
2021/11/29 10:56:28;;;;;;;4.17;3.10;;;7.70;99.90;;;;;;5112188;28;20411;-78
2021/11/29 10:58:56;;;;;;;3.93;3.00;;;7.90;99.90;;;;;;5093858;28;20612;-77
2021/11/29 11:01:36;;;;;;;6.13;3.63;;;7.50;99.90;;;;;;5092032;28;20292;-76
2021/11/29 11:04:05;;;;;;;3.97;3.50;;;7.60;99.90;;;;;;5092084;28;20249;-76
2021/11/29 11:06:34;;;;;;;4.40;3.60;;;7.90;99.90;;;;;;5091644;28;20227;-76
2021/11/29 11:09:10;;;;;;;3.90;3.50;;;7.70;99.90;;;;;;5094117;28;20646;-76
2021/11/29 11:11:41;;;;;;;6.20;3.77;;;7.40;99.90;;;;;;5100862;28;20229;-76
2021/11/29 11:14:11;;;;;;;4.50;3.60;;;7.90;99.90;;;;;;5101614;28;20221;-76
2021/11/29 11:17:00;;;;;;;5.63;3.67;;;8.00;99.90;;;;;;5111754;28;20284;-77
2021/11/29 11:19:31;;;;;;;4.03;3.40;;;8.50;99.90;;;;;;5108146;28;20308;-76
2021/11/29 11:21:59;;;;;;;4.83;3.53;;;8.70;99.90;;;;;;5093846;28;20670;-77
2021/11/29 11:24:31;;;;;;;5.83;3.30;;;9.00;99.90;;;;;;5091895;28;20292;-77
2021/11/29 11:26:59;;;;;;;4.47;3.07;;;9.20;99.90;;;;;;5102050;28;20676;-76
2021/11/29 11:29:47;;;;;;;4.87;2.87;;;9.70;99.90;;;;;;5111958;28;20260;-77
2021/11/29 11:32:27;;;;;;;4.10;3.33;;;10.30;99.90;;;;;;5112315;28;20233;-77
2021/11/29 11:34:56;;;;;;;4.27;3.17;;;10.30;99.90;;;;;;5107898;28;20577;-77
2021/11/29 11:37:26;;;;;;;3.40;3.10;;;10.30;99.90;;;;;;5112206;28;20225;-76
2021/11/29 11:39:55;;;;;;;5.00;2.80;;;10.40;99.90;;;;;;5112026;28;20284;-77
2021/11/29 11:42:23;;;;;;;5.07;2.77;;;10.60;99.90;;;;;;5096569;28;20238;-77
2021/11/29 11:44:51;;;;;;;3.77;3.00;;;10.50;99.90;;;;;;5111235;28;20229;-77
2021/11/29 11:47:19;;;;;;;4.33;2.90;;;11.10;99.90;;;;;;5110599;28;20281;-77
2021/11/29 11:49:48;;;;;;;4.80;3.10;;;10.60;99.90;;;;;;5112549;28;20720;-78
2021/11/29 11:52:17;;;;;;;3.23;2.70;;;10.70;99.90;;;;;;5115882;28;20210;-78
2021/11/29 11:54:44;;;;;;;4.27;2.37;;;10.20;99.90;;;;;;5113651;28;20755;-78
2021/11/29 11:57:15;;;;;;;2.60;2.00;;;10.30;99.90;;;;;;5115150;28;20296;-77
2021/11/29 12:00:03;;;;;;;2.67;1.97;;;10.70;99.90;;;;;;5114687;27;20221;-78
2021/11/29 12:03:04;;;;;;;4.50;2.10;;;10.60;99.90;;;;;;5110349;28;20200;-77
2021/11/29 12:05:33;;;;;;;3.90;1.70;;;11.00;99.90;;;;;;5114182;28;20675;-78
2021/11/29 12:08:05;;;;;;;4.50;1.90;;;11.00;99.90;;;;;;5114781;28;20619;-77
2021/11/29 12:10:42;;;;;;;2.17;1.50;;;10.70;99.90;;;;;;5102627;28;20273;-77
2021/11/29 12:13:13;;;;;;;3.40;1.80;;;10.60;99.90;;;;;;5115430;28;20229;-77
2021/11/29 12:15:45;;;;;;;2.63;2.20;;;10.10;99.90;;;;;;5113940;28;20218;-77
2021/11/29 12:18:15;;;;;;;2.83;2.20;;;10.50;99.90;;;;;;5106777;28;20200;-77
2021/11/29 12:21:02;;;;;;;2.33;1.80;;;10.50;99.90;;;;;;5114357;28;20274;-77
2021/11/29 12:23:41;;;;;;;4.10;1.97;;;10.40;99.90;;;;;;5109720;27;20740;-77
2021/11/29 12:26:09;;;;;;;3.97;1.80;;;10.30;99.90;;;;;;5108296;28;20258;-77
2021/11/29 12:28:40;;;;;;;5.33;1.90;;;10.60;99.90;;;;;;5114824;28;20661;-76
2021/11/29 12:31:37;;;;;;;4.30;1.83;;;10.60;99.90;;;;;;5115385;27;20202;-77
2021/11/29 12:34:08;;;;;;;2.47;1.50;;;11.00;99.90;;;;;;5112602;28;20205;-76
2021/11/29 12:37:10;;;;;;;3.77;1.77;;;10.40;99.90;;;;;;5109800;28;20565;-77
2021/11/29 12:39:54;;;;;;;2.57;1.60;;;10.30;99.90;;;;;;5116526;27;20193;-77
2021/11/29 12:42:55;;;;;;;2.70;1.23;;;9.90;99.90;;;;;;5110279;27;20199;-76
2021/11/29 12:45:31;;;;;;;3.40;1.60;;;10.10;99.90;;;;;;5014172;28;20209;-77
2021/11/29 12:48:09;;;;;;;3.40;1.60;;;10.40;99.90;;;;;;5014830;28;20202;-77
2021/11/29 12:51:01;;;;;;;3.77;1.50;;;10.10;99.90;;;;;;5011741;28;20311;-77
2021/11/29 12:53:37;;;;;;;3.53;1.57;;;9.80;99.90;;;;;;5001673;28;20197;-77
2021/11/29 12:56:23;;;;;;;4.00;1.50;;;9.90;99.90;;;;;;5011905;28;20201;-76
2021/11/29 12:59:04;;;;;;;2.33;1.33;;;9.90;99.90;;;;;;5011042;28;20248;-77